sensor_id;sensor_type;location;lat;lon;timestamp;P1;durP1;ratioP1;P2;durP2;ratioP2
50205;SDS011;36098;48.390;10.856;2022-12-04T00:01:38;5.50;;;3.95;;
50205;SDS011;36098;48.390;10.856;2022-12-04T00:04:03;6.38;;;4.00;;
50205;SDS011;36098;48.390;10.856;2022-12-04T00:06:28;5.68;;;4.05;;
50205;SDS011;36098;48.390;10.856;2022-12-04T00:08:54;5.55;;;4.03;;
50205;SDS011;36098;48.390;10.856;2022-12-04T00:11:21;4.93;;;3.80;;
50205;SDS011;36098;48.390;10.856;2022-12-04T00:13:47;4.82;;;3.70;;
50205;SDS011;36098;48.390;10.856;2022-12-04T00:16:15;5.20;;;3.88;;
50205;SDS011;36098;48.390;10.856;2022-12-04T00:18:42;6.03;;;3.75;;
50205;SDS011;36098;48.390;10.856;2022-12-04T00:21:09;4.95;;;3.80;;
50205;SDS011;36098;48.390;10.856;2022-12-04T00:23:36;4.68;;;3.70;;
50205;SDS011;36098;48.390;10.856;2022-12-04T00:26:03;5.25;;;3.88;;
50205;SDS011;36098;48.390;10.856;2022-12-04T00:28:30;5.25;;;4.03;;
50205;SDS011;36098;48.390;10.856;2022-12-04T00:30:57;5.32;;;3.90;;
50205;SDS011;36098;48.390;10.856;2022-12-04T00:33:22;4.75;;;3.72;;
50205;SDS011;36098;48.390;10.856;2022-12-04T00:35:47;5.10;;;3.78;;
50205;SDS011;36098;48.390;10.856;2022-12-04T00:38:13;5.63;;;4.15;;
50205;SDS011;36098;48.390;10.856;2022-12-04T00:40:38;4.93;;;3.80;;
50205;SDS011;36098;48.390;10.856;2022-12-04T00:43:03;5.20;;;3.95;;
50205;SDS011;36098;48.390;10.856;2022-12-04T00:45:28;5.40;;;4.13;;
50205;SDS011;36098;48.390;10.856;2022-12-04T00:47:54;5.38;;;3.60;;
50205;SDS011;36098;48.390;10.856;2022-12-04T00:50:19;5.68;;;3.70;;
50205;SDS011;36098;48.390;10.856;2022-12-04T00:52:44;5.35;;;4.05;;
50205;SDS011;36098;48.390;10.856;2022-12-04T00:55:10;5.15;;;3.85;;
50205;SDS011;36098;48.390;10.856;2022-12-04T00:57:35;4.93;;;3.50;;
50205;SDS011;36098;48.390;10.856;2022-12-04T01:00:00;5.07;;;3.80;;
50205;SDS011;36098;48.390;10.856;2022-12-04T01:02:25;4.40;;;3.65;;
50205;SDS011;36098;48.390;10.856;2022-12-04T01:04:51;4.60;;;3.55;;
50205;SDS011;36098;48.390;10.856;2022-12-04T01:07:16;5.57;;;4.18;;
50205;SDS011;36098;48.390;10.856;2022-12-04T01:09:41;5.07;;;3.83;;
50205;SDS011;36098;48.390;10.856;2022-12-04T01:12:06;4.85;;;3.50;;
50205;SDS011;36098;48.390;10.856;2022-12-04T01:14:32;5.07;;;3.88;;
50205;SDS011;36098;48.390;10.856;2022-12-04T01:16:57;5.50;;;3.70;;
50205;SDS011;36098;48.390;10.856;2022-12-04T01:19:23;4.85;;;3.40;;
50205;SDS011;36098;48.390;10.856;2022-12-04T01:21:48;5.10;;;3.60;;
50205;SDS011;36098;48.390;10.856;2022-12-04T01:24:13;4.43;;;3.47;;
50205;SDS011;36098;48.390;10.856;2022-12-04T01:26:39;5.10;;;3.60;;
50205;SDS011;36098;48.390;10.856;2022-12-04T01:29:04;5.57;;;3.80;;
50205;SDS011;36098;48.390;10.856;2022-12-04T01:31:30;5.65;;;3.60;;
50205;SDS011;36098;48.390;10.856;2022-12-04T01:33:55;4.68;;;3.50;;
50205;SDS011;36098;48.390;10.856;2022-12-04T01:36:22;5.07;;;3.47;;
50205;SDS011;36098;48.390;10.856;2022-12-04T01:38:49;4.80;;;3.50;;
50205;SDS011;36098;48.390;10.856;2022-12-04T01:41:16;4.90;;;3.50;;
50205;SDS011;36098;48.390;10.856;2022-12-04T01:43:44;4.53;;;3.15;;
50205;SDS011;36098;48.390;10.856;2022-12-04T01:46:09;5.50;;;3.65;;
50205;SDS011;36098;48.390;10.856;2022-12-04T01:48:39;4.78;;;3.50;;
50205;SDS011;36098;48.390;10.856;2022-12-04T01:53:49;4.72;;;3.38;;
50205;SDS011;36098;48.390;10.856;2022-12-04T01:56:18;4.40;;;3.30;;
50205;SDS011;36098;48.390;10.856;2022-12-04T01:58:50;4.95;;;3.72;;
50205;SDS011;36098;48.390;10.856;2022-12-04T02:01:17;4.70;;;3.60;;
50205;SDS011;36098;48.390;10.856;2022-12-04T02:03:43;4.00;;;3.03;;
50205;SDS011;36098;48.390;10.856;2022-12-04T02:06:08;4.28;;;3.20;;
50205;SDS011;36098;48.390;10.856;2022-12-04T02:08:34;4.00;;;3.13;;
50205;SDS011;36098;48.390;10.856;2022-12-04T02:11:09;4.10;;;2.90;;
50205;SDS011;36098;48.390;10.856;2022-12-04T02:13:50;4.07;;;3.22;;
50205;SDS011;36098;48.390;10.856;2022-12-04T02:16:21;4.47;;;3.28;;
50205;SDS011;36098;48.390;10.856;2022-12-04T02:21:48;3.92;;;3.10;;
50205;SDS011;36098;48.390;10.856;2022-12-04T02:24:24;4.25;;;3.28;;
50205;SDS011;36098;48.390;10.856;2022-12-04T02:30:03;4.80;;;3.08;;
50205;SDS011;36098;48.390;10.856;2022-12-04T02:32:38;4.10;;;2.97;;
50205;SDS011;36098;48.390;10.856;2022-12-04T02:35:10;4.63;;;3.30;;
50205;SDS011;36098;48.390;10.856;2022-12-04T02:37:44;4.05;;;2.92;;
50205;SDS011;36098;48.390;10.856;2022-12-04T02:40:16;4.25;;;3.00;;
50205;SDS011;36098;48.390;10.856;2022-12-04T02:45:29;5.22;;;3.00;;
50205;SDS011;36098;48.390;10.856;2022-12-04T02:47:58;3.67;;;3.00;;
50205;SDS011;36098;48.390;10.856;2022-12-04T02:50:26;4.35;;;3.33;;
50205;SDS011;36098;48.390;10.856;2022-12-04T02:53:15;4.30;;;3.03;;
50205;SDS011;36098;48.390;10.856;2022-12-04T02:55:43;5.30;;;3.13;;
50205;SDS011;36098;48.390;10.856;2022-12-04T02:58:18;4.82;;;3.42;;
50205;SDS011;36098;48.390;10.856;2022-12-04T03:00:49;4.10;;;2.95;;
50205;SDS011;36098;48.390;10.856;2022-12-04T03:03:18;3.97;;;3.00;;
50205;SDS011;36098;48.390;10.856;2022-12-04T03:08:56;4.90;;;2.95;;
50205;SDS011;36098;48.390;10.856;2022-12-04T03:11:32;4.38;;;3.30;;
50205;SDS011;36098;48.390;10.856;2022-12-04T03:14:01;4.82;;;3.22;;
50205;SDS011;36098;48.390;10.856;2022-12-04T03:16:35;4.53;;;3.10;;
50205;SDS011;36098;48.390;10.856;2022-12-04T03:19:06;5.93;;;2.85;;
50205;SDS011;36098;48.390;10.856;2022-12-04T03:21:37;4.07;;;2.90;;
50205;SDS011;36098;48.390;10.856;2022-12-04T03:24:23;3.67;;;2.70;;
50205;SDS011;36098;48.390;10.856;2022-12-04T03:27:04;3.88;;;2.90;;
50205;SDS011;36098;48.390;10.856;2022-12-04T03:29:43;3.38;;;2.80;;
50205;SDS011;36098;48.390;10.856;2022-12-04T03:32:38;3.85;;;2.80;;
50205;SDS011;36098;48.390;10.856;2022-12-04T03:35:09;3.13;;;2.55;;
50205;SDS011;36098;48.390;10.856;2022-12-04T03:37:56;4.15;;;3.05;;
50205;SDS011;36098;48.390;10.856;2022-12-04T03:45:50;3.60;;;2.80;;
50205;SDS011;36098;48.390;10.856;2022-12-04T03:51:16;3.67;;;2.88;;
50205;SDS011;36098;48.390;10.856;2022-12-04T03:53:48;4.00;;;2.70;;
50205;SDS011;36098;48.390;10.856;2022-12-04T03:56:20;4.18;;;3.00;;
50205;SDS011;36098;48.390;10.856;2022-12-04T03:58:50;3.47;;;2.97;;
50205;SDS011;36098;48.390;10.856;2022-12-04T04:01:20;3.35;;;2.45;;
50205;SDS011;36098;48.390;10.856;2022-12-04T04:03:49;3.25;;;2.67;;
50205;SDS011;36098;48.390;10.856;2022-12-04T04:06:30;3.33;;;2.50;;
50205;SDS011;36098;48.390;10.856;2022-12-04T04:08:59;3.83;;;2.58;;
50205;SDS011;36098;48.390;10.856;2022-12-04T04:11:43;4.70;;;2.53;;
50205;SDS011;36098;48.390;10.856;2022-12-04T04:14:14;5.28;;;2.80;;
50205;SDS011;36098;48.390;10.856;2022-12-04T04:17:05;3.92;;;2.72;;
50205;SDS011;36098;48.390;10.856;2022-12-04T04:19:59;3.05;;;2.40;;
50205;SDS011;36098;48.390;10.856;2022-12-04T04:22:54;3.83;;;2.60;;
50205;SDS011;36098;48.390;10.856;2022-12-04T04:25:41;3.58;;;2.58;;
50205;SDS011;36098;48.390;10.856;2022-12-04T04:33:21;3.40;;;2.80;;
50205;SDS011;36098;48.390;10.856;2022-12-04T04:35:50;4.05;;;2.90;;
50205;SDS011;36098;48.390;10.856;2022-12-04T04:38:26;4.25;;;2.40;;
50205;SDS011;36098;48.390;10.856;2022-12-04T04:43:42;4.72;;;2.50;;
50205;SDS011;36098;48.390;10.856;2022-12-04T04:46:16;3.08;;;2.30;;
50205;SDS011;36098;48.390;10.856;2022-12-04T04:48:50;3.28;;;2.55;;
50205;SDS011;36098;48.390;10.856;2022-12-04T04:51:18;2.60;;;2.25;;
50205;SDS011;36098;48.390;10.856;2022-12-04T04:53:46;2.70;;;2.40;;
50205;SDS011;36098;48.390;10.856;2022-12-04T04:56:15;3.08;;;2.40;;
50205;SDS011;36098;48.390;10.856;2022-12-04T04:58:40;3.33;;;2.78;;
50205;SDS011;36098;48.390;10.856;2022-12-04T05:01:27;3.47;;;2.38;;
50205;SDS011;36098;48.390;10.856;2022-12-04T05:03:52;2.95;;;2.33;;
50205;SDS011;36098;48.390;10.856;2022-12-04T05:06:18;3.42;;;2.50;;
50205;SDS011;36098;48.390;10.856;2022-12-04T05:08:43;3.13;;;2.33;;
50205;SDS011;36098;48.390;10.856;2022-12-04T05:11:12;3.17;;;2.30;;
50205;SDS011;36098;48.390;10.856;2022-12-04T05:13:38;2.63;;;2.10;;
50205;SDS011;36098;48.390;10.856;2022-12-04T05:16:05;3.90;;;2.40;;
50205;SDS011;36098;48.390;10.856;2022-12-04T05:18:33;2.88;;;2.40;;
50205;SDS011;36098;48.390;10.856;2022-12-04T05:21:03;2.78;;;2.38;;
50205;SDS011;36098;48.390;10.856;2022-12-04T05:23:32;3.53;;;2.30;;
50205;SDS011;36098;48.390;10.856;2022-12-04T05:26:01;3.90;;;2.28;;
50205;SDS011;36098;48.390;10.856;2022-12-04T05:28:28;2.90;;;2.20;;
50205;SDS011;36098;48.390;10.856;2022-12-04T05:30:56;2.97;;;2.20;;
50205;SDS011;36098;48.390;10.856;2022-12-04T05:33:23;3.03;;;2.40;;
50205;SDS011;36098;48.390;10.856;2022-12-04T05:35:55;2.90;;;2.30;;
50205;SDS011;36098;48.390;10.856;2022-12-04T05:38:26;2.80;;;2.40;;
50205;SDS011;36098;48.390;10.856;2022-12-04T05:40:51;2.90;;;2.20;;
50205;SDS011;36098;48.390;10.856;2022-12-04T05:43:17;3.35;;;2.65;;
50205;SDS011;36098;48.390;10.856;2022-12-04T05:45:42;2.92;;;2.13;;
50205;SDS011;36098;48.390;10.856;2022-12-04T05:48:07;3.08;;;2.20;;
50205;SDS011;36098;48.390;10.856;2022-12-04T05:50:33;2.95;;;2.33;;
50205;SDS011;36098;48.390;10.856;2022-12-04T05:52:58;2.50;;;2.03;;
50205;SDS011;36098;48.390;10.856;2022-12-04T05:55:23;2.90;;;2.10;;
50205;SDS011;36098;48.390;10.856;2022-12-04T05:57:48;3.15;;;2.28;;
50205;SDS011;36098;48.390;10.856;2022-12-04T06:00:14;2.72;;;2.35;;
50205;SDS011;36098;48.390;10.856;2022-12-04T06:02:40;2.25;;;1.90;;
50205;SDS011;36098;48.390;10.856;2022-12-04T06:05:05;2.63;;;2.03;;
50205;SDS011;36098;48.390;10.856;2022-12-04T06:07:31;3.42;;;2.13;;
50205;SDS011;36098;48.390;10.856;2022-12-04T06:09:56;2.42;;;1.90;;
50205;SDS011;36098;48.390;10.856;2022-12-04T06:12:21;3.85;;;2.47;;
50205;SDS011;36098;48.390;10.856;2022-12-04T06:14:46;3.30;;;2.50;;
50205;SDS011;36098;48.390;10.856;2022-12-04T06:17:12;2.95;;;2.30;;
50205;SDS011;36098;48.390;10.856;2022-12-04T06:19:38;3.03;;;2.42;;
50205;SDS011;36098;48.390;10.856;2022-12-04T06:22:03;3.08;;;2.40;;
50205;SDS011;36098;48.390;10.856;2022-12-04T06:24:28;3.10;;;2.40;;
50205;SDS011;36098;48.390;10.856;2022-12-04T06:26:54;3.00;;;2.40;;
50205;SDS011;36098;48.390;10.856;2022-12-04T06:29:21;3.55;;;2.28;;
50205;SDS011;36098;48.390;10.856;2022-12-04T06:31:47;2.63;;;2.20;;
50205;SDS011;36098;48.390;10.856;2022-12-04T06:34:12;3.25;;;2.50;;
50205;SDS011;36098;48.390;10.856;2022-12-04T06:36:37;3.17;;;2.58;;
50205;SDS011;36098;48.390;10.856;2022-12-04T06:39:03;3.75;;;2.65;;
50205;SDS011;36098;48.390;10.856;2022-12-04T06:41:29;2.60;;;2.17;;
50205;SDS011;36098;48.390;10.856;2022-12-04T06:43:55;3.88;;;2.60;;
50205;SDS011;36098;48.390;10.856;2022-12-04T06:46:21;3.50;;;2.55;;
50205;SDS011;36098;48.390;10.856;2022-12-04T06:48:48;3.47;;;2.63;;
50205;SDS011;36098;48.390;10.856;2022-12-04T06:51:21;3.55;;;2.63;;
50205;SDS011;36098;48.390;10.856;2022-12-04T06:53:51;3.10;;;2.33;;
50205;SDS011;36098;48.390;10.856;2022-12-04T06:56:18;3.97;;;2.35;;
50205;SDS011;36098;48.390;10.856;2022-12-04T06:58:48;4.65;;;2.50;;
50205;SDS011;36098;48.390;10.856;2022-12-04T07:01:16;3.80;;;2.65;;
50205;SDS011;36098;48.390;10.856;2022-12-04T07:03:44;3.58;;;2.67;;
50205;SDS011;36098;48.390;10.856;2022-12-04T07:08:35;3.47;;;2.75;;
50205;SDS011;36098;48.390;10.856;2022-12-04T07:11:01;3.70;;;2.80;;
50205;SDS011;36098;48.390;10.856;2022-12-04T07:13:26;3.42;;;2.50;;
50205;SDS011;36098;48.390;10.856;2022-12-04T07:15:51;3.08;;;2.45;;
50205;SDS011;36098;48.390;10.856;2022-12-04T07:18:17;3.03;;;2.47;;
50205;SDS011;36098;48.390;10.856;2022-12-04T07:20:42;3.80;;;2.60;;
50205;SDS011;36098;48.390;10.856;2022-12-04T07:23:07;3.42;;;2.55;;
50205;SDS011;36098;48.390;10.856;2022-12-04T07:25:32;3.95;;;2.67;;
50205;SDS011;36098;48.390;10.856;2022-12-04T07:27:58;3.40;;;2.60;;
50205;SDS011;36098;48.390;10.856;2022-12-04T07:30:23;4.03;;;2.55;;
50205;SDS011;36098;48.390;10.856;2022-12-04T07:32:48;3.58;;;2.47;;
50205;SDS011;36098;48.390;10.856;2022-12-04T07:35:14;3.42;;;2.55;;
50205;SDS011;36098;48.390;10.856;2022-12-04T07:37:39;2.55;;;2.25;;
50205;SDS011;36098;48.390;10.856;2022-12-04T07:40:04;5.40;;;2.40;;
50205;SDS011;36098;48.390;10.856;2022-12-04T07:42:30;3.03;;;2.30;;
50205;SDS011;36098;48.390;10.856;2022-12-04T07:44:55;3.13;;;2.22;;
50205;SDS011;36098;48.390;10.856;2022-12-04T07:47:21;3.83;;;2.40;;
50205;SDS011;36098;48.390;10.856;2022-12-04T07:49:46;3.55;;;2.10;;
50205;SDS011;36098;48.390;10.856;2022-12-04T07:52:11;3.83;;;2.60;;
50205;SDS011;36098;48.390;10.856;2022-12-04T07:54:37;3.38;;;2.35;;
50205;SDS011;36098;48.390;10.856;2022-12-04T07:57:02;3.05;;;2.60;;
50205;SDS011;36098;48.390;10.856;2022-12-04T07:59:27;3.53;;;2.47;;
50205;SDS011;36098;48.390;10.856;2022-12-04T08:01:52;5.22;;;2.40;;
50205;SDS011;36098;48.390;10.856;2022-12-04T08:04:18;5.63;;;2.95;;
50205;SDS011;36098;48.390;10.856;2022-12-04T08:06:43;6.07;;;2.72;;
50205;SDS011;36098;48.390;10.856;2022-12-04T08:09:08;3.10;;;2.50;;
50205;SDS011;36098;48.390;10.856;2022-12-04T08:11:34;4.43;;;3.15;;
50205;SDS011;36098;48.390;10.856;2022-12-04T08:14:00;3.70;;;2.60;;
50205;SDS011;36098;48.390;10.856;2022-12-04T08:16:28;5.30;;;2.60;;
50205;SDS011;36098;48.390;10.856;2022-12-04T08:18:55;4.32;;;2.70;;
50205;SDS011;36098;48.390;10.856;2022-12-04T08:21:22;3.80;;;3.05;;
50205;SDS011;36098;48.390;10.856;2022-12-04T08:23:50;6.47;;;3.15;;
50205;SDS011;36098;48.390;10.856;2022-12-04T08:26:17;4.45;;;3.05;;
50205;SDS011;36098;48.390;10.856;2022-12-04T08:28:43;4.90;;;3.00;;
50205;SDS011;36098;48.390;10.856;2022-12-04T08:31:11;12.07;;;2.88;;
50205;SDS011;36098;48.390;10.856;2022-12-04T08:33:38;4.30;;;2.97;;
50205;SDS011;36098;48.390;10.856;2022-12-04T08:36:05;6.05;;;2.80;;
50205;SDS011;36098;48.390;10.856;2022-12-04T08:38:31;5.85;;;2.65;;
50205;SDS011;36098;48.390;10.856;2022-12-04T08:41:00;6.53;;;3.25;;
50205;SDS011;36098;48.390;10.856;2022-12-04T08:43:26;6.68;;;2.80;;
50205;SDS011;36098;48.390;10.856;2022-12-04T08:45:58;8.60;;;2.90;;
50205;SDS011;36098;48.390;10.856;2022-12-04T08:48:27;5.55;;;2.92;;
50205;SDS011;36098;48.390;10.856;2022-12-04T08:50:53;6.03;;;3.05;;
50205;SDS011;36098;48.390;10.856;2022-12-04T08:53:19;3.95;;;2.70;;
50205;SDS011;36098;48.390;10.856;2022-12-04T08:55:45;4.88;;;2.80;;
50205;SDS011;36098;48.390;10.856;2022-12-04T08:58:10;5.85;;;2.92;;
50205;SDS011;36098;48.390;10.856;2022-12-04T09:00:36;7.53;;;3.40;;
50205;SDS011;36098;48.390;10.856;2022-12-04T09:03:01;4.55;;;3.13;;
50205;SDS011;36098;48.390;10.856;2022-12-04T09:05:28;5.45;;;3.20;;
50205;SDS011;36098;48.390;10.856;2022-12-04T09:07:54;3.85;;;2.78;;
50205;SDS011;36098;48.390;10.856;2022-12-04T09:10:19;7.35;;;3.05;;
50205;SDS011;36098;48.390;10.856;2022-12-04T09:12:44;19.27;;;3.60;;
50205;SDS011;36098;48.390;10.856;2022-12-04T09:15:10;4.93;;;3.17;;
50205;SDS011;36098;48.390;10.856;2022-12-04T09:17:36;9.27;;;3.38;;
50205;SDS011;36098;48.390;10.856;2022-12-04T09:20:02;7.22;;;3.13;;
50205;SDS011;36098;48.390;10.856;2022-12-04T09:22:29;6.97;;;3.20;;
50205;SDS011;36098;48.390;10.856;2022-12-04T09:24:54;5.93;;;3.08;;
50205;SDS011;36098;48.390;10.856;2022-12-04T09:27:20;6.72;;;3.40;;
50205;SDS011;36098;48.390;10.856;2022-12-04T09:29:45;4.53;;;3.30;;
50205;SDS011;36098;48.390;10.856;2022-12-04T09:32:10;6.25;;;3.28;;
50205;SDS011;36098;48.390;10.856;2022-12-04T09:34:36;5.40;;;3.30;;
50205;SDS011;36098;48.390;10.856;2022-12-04T09:37:01;4.68;;;3.42;;
50205;SDS011;36098;48.390;10.856;2022-12-04T09:39:26;5.80;;;2.70;;
50205;SDS011;36098;48.390;10.856;2022-12-04T09:42:09;9.43;;;3.45;;
50205;SDS011;36098;48.390;10.856;2022-12-04T09:47:38;8.18;;;3.28;;
50205;SDS011;36098;48.390;10.856;2022-12-04T09:53:24;5.53;;;3.78;;
50205;SDS011;36098;48.390;10.856;2022-12-04T09:56:05;7.65;;;3.75;;
50205;SDS011;36098;48.390;10.856;2022-12-04T09:58:40;8.05;;;3.45;;
50205;SDS011;36098;48.390;10.856;2022-12-04T10:01:17;4.72;;;3.47;;
50205;SDS011;36098;48.390;10.856;2022-12-04T10:03:46;5.20;;;3.22;;
50205;SDS011;36098;48.390;10.856;2022-12-04T10:08:43;6.70;;;3.28;;
50205;SDS011;36098;48.390;10.856;2022-12-04T10:11:22;6.80;;;3.30;;
50205;SDS011;36098;48.390;10.856;2022-12-04T10:13:53;5.50;;;3.33;;
50205;SDS011;36098;48.390;10.856;2022-12-04T10:16:36;6.20;;;3.15;;
50205;SDS011;36098;48.390;10.856;2022-12-04T10:19:48;5.05;;;3.17;;
50205;SDS011;36098;48.390;10.856;2022-12-04T10:22:28;4.45;;;3.47;;
50205;SDS011;36098;48.390;10.856;2022-12-04T10:25:11;5.80;;;3.40;;
50205;SDS011;36098;48.390;10.856;2022-12-04T10:30:35;5.50;;;3.05;;
50205;SDS011;36098;48.390;10.856;2022-12-04T10:33:18;4.90;;;3.17;;
50205;SDS011;36098;48.390;10.856;2022-12-04T10:35:48;4.22;;;2.90;;
50205;SDS011;36098;48.390;10.856;2022-12-04T10:40:55;4.10;;;3.15;;
50205;SDS011;36098;48.390;10.856;2022-12-04T10:43:40;4.10;;;3.05;;
50205;SDS011;36098;48.390;10.856;2022-12-04T10:46:15;7.45;;;3.25;;
50205;SDS011;36098;48.390;10.856;2022-12-04T10:48:47;6.50;;;3.53;;
50205;SDS011;36098;48.390;10.856;2022-12-04T10:51:15;5.38;;;3.38;;
50205;SDS011;36098;48.390;10.856;2022-12-04T10:53:43;4.97;;;3.10;;
50205;SDS011;36098;48.390;10.856;2022-12-04T10:56:20;4.93;;;3.20;;
50205;SDS011;36098;48.390;10.856;2022-12-04T10:59:21;4.95;;;3.50;;
50205;SDS011;36098;48.390;10.856;2022-12-04T11:01:39;5.28;;;3.38;;
50205;SDS011;36098;48.390;10.856;2022-12-04T11:04:07;4.30;;;3.17;;
50205;SDS011;36098;48.390;10.856;2022-12-04T11:06:42;4.75;;;3.30;;
50205;SDS011;36098;48.390;10.856;2022-12-04T11:09:14;4.45;;;3.30;;
50205;SDS011;36098;48.390;10.856;2022-12-04T11:11:46;5.45;;;3.17;;
50205;SDS011;36098;48.390;10.856;2022-12-04T11:14:13;5.10;;;3.47;;
50205;SDS011;36098;48.390;10.856;2022-12-04T11:16:44;4.20;;;3.28;;
50205;SDS011;36098;48.390;10.856;2022-12-04T11:21:49;5.00;;;3.60;;
50205;SDS011;36098;48.390;10.856;2022-12-04T11:24:19;4.35;;;3.22;;
50205;SDS011;36098;48.390;10.856;2022-12-04T11:26:47;5.68;;;3.17;;
50205;SDS011;36098;48.390;10.856;2022-12-04T11:29:13;4.15;;;3.20;;
50205;SDS011;36098;48.390;10.856;2022-12-04T11:31:45;4.55;;;3.35;;
50205;SDS011;36098;48.390;10.856;2022-12-04T11:34:22;4.32;;;3.30;;
50205;SDS011;36098;48.390;10.856;2022-12-04T11:36:53;4.57;;;3.38;;
50205;SDS011;36098;48.390;10.856;2022-12-04T11:41:59;5.00;;;3.40;;
50205;SDS011;36098;48.390;10.856;2022-12-04T11:47:25;4.82;;;3.45;;
50205;SDS011;36098;48.390;10.856;2022-12-04T11:50:01;5.00;;;3.40;;
50205;SDS011;36098;48.390;10.856;2022-12-04T11:55:33;5.20;;;3.60;;
50205;SDS011;36098;48.390;10.856;2022-12-04T11:58:17;8.02;;;4.00;;
50205;SDS011;36098;48.390;10.856;2022-12-04T12:01:12;5.95;;;3.40;;
50205;SDS011;36098;48.390;10.856;2022-12-04T12:03:37;5.07;;;3.75;;
50205;SDS011;36098;48.390;10.856;2022-12-04T12:06:12;5.57;;;3.67;;
50205;SDS011;36098;48.390;10.856;2022-12-04T12:08:54;8.00;;;4.07;;
50205;SDS011;36098;48.390;10.856;2022-12-04T12:14:21;4.80;;;3.30;;
50205;SDS011;36098;48.390;10.856;2022-12-04T12:17:12;5.30;;;3.30;;
50205;SDS011;36098;48.390;10.856;2022-12-04T12:25:45;7.28;;;3.63;;
50205;SDS011;36098;48.390;10.856;2022-12-04T12:28:32;5.20;;;3.28;;
50205;SDS011;36098;48.390;10.856;2022-12-04T12:33:35;6.35;;;3.85;;
50205;SDS011;36098;48.390;10.856;2022-12-04T12:36:08;7.50;;;3.40;;
50205;SDS011;36098;48.390;10.856;2022-12-04T12:38:38;4.78;;;3.38;;
50205;SDS011;36098;48.390;10.856;2022-12-04T12:41:19;6.57;;;3.17;;
50205;SDS011;36098;48.390;10.856;2022-12-04T12:43:47;6.93;;;3.35;;
50205;SDS011;36098;48.390;10.856;2022-12-04T13:00:24;5.90;;;3.38;;
50205;SDS011;36098;48.390;10.856;2022-12-04T13:02:55;7.15;;;4.47;;
50205;SDS011;36098;48.390;10.856;2022-12-04T13:05:30;10.68;;;4.30;;
50205;SDS011;36098;48.390;10.856;2022-12-04T13:11:11;10.13;;;4.18;;
50205;SDS011;36098;48.390;10.856;2022-12-04T13:13:42;7.78;;;3.88;;
50205;SDS011;36098;48.390;10.856;2022-12-04T13:16:16;8.57;;;4.35;;
50205;SDS011;36098;48.390;10.856;2022-12-04T13:18:50;7.25;;;4.03;;
50205;SDS011;36098;48.390;10.856;2022-12-04T13:24:24;7.78;;;4.25;;
50205;SDS011;36098;48.390;10.856;2022-12-04T13:32:16;8.18;;;4.07;;
50205;SDS011;36098;48.390;10.856;2022-12-04T13:37:26;20.27;;;4.55;;
50205;SDS011;36098;48.390;10.856;2022-12-04T13:45:53;8.15;;;4.35;;
50205;SDS011;36098;48.390;10.856;2022-12-04T13:48:27;7.47;;;4.35;;
50205;SDS011;36098;48.390;10.856;2022-12-04T13:53:38;8.27;;;4.80;;
50205;SDS011;36098;48.390;10.856;2022-12-04T13:56:06;8.57;;;4.60;;
50205;SDS011;36098;48.390;10.856;2022-12-04T13:58:46;16.80;;;4.45;;
50205;SDS011;36098;48.390;10.856;2022-12-04T14:01:35;9.27;;;4.40;;
50205;SDS011;36098;48.390;10.856;2022-12-04T14:04:03;7.85;;;4.70;;
50205;SDS011;36098;48.390;10.856;2022-12-04T14:09:07;8.00;;;4.70;;
50205;SDS011;36098;48.390;10.856;2022-12-04T14:11:44;13.50;;;4.72;;
50205;SDS011;36098;48.390;10.856;2022-12-04T14:14:19;9.07;;;4.63;;
50205;SDS011;36098;48.390;10.856;2022-12-04T14:16:49;7.78;;;4.63;;
50205;SDS011;36098;48.390;10.856;2022-12-04T14:19:50;9.75;;;4.65;;
50205;SDS011;36098;48.390;10.856;2022-12-04T14:22:24;7.00;;;4.50;;
50205;SDS011;36098;48.390;10.856;2022-12-04T14:24:50;6.75;;;4.53;;
50205;SDS011;36098;48.390;10.856;2022-12-04T14:27:30;11.88;;;4.50;;
50205;SDS011;36098;48.390;10.856;2022-12-04T14:32:43;7.10;;;4.20;;
50205;SDS011;36098;48.390;10.856;2022-12-04T14:35:20;6.38;;;4.07;;
50205;SDS011;36098;48.390;10.856;2022-12-04T14:37:50;5.88;;;4.20;;
50205;SDS011;36098;48.390;10.856;2022-12-04T14:40:52;6.20;;;4.30;;
50205;SDS011;36098;48.390;10.856;2022-12-04T14:43:19;7.85;;;4.13;;
50205;SDS011;36098;48.390;10.856;2022-12-04T14:46:11;5.80;;;4.20;;
50205;SDS011;36098;48.390;10.856;2022-12-04T14:48:43;6.72;;;3.83;;
50205;SDS011;36098;48.390;10.856;2022-12-04T14:51:31;6.30;;;3.90;;
50205;SDS011;36098;48.390;10.856;2022-12-04T14:59:14;6.50;;;4.18;;
50205;SDS011;36098;48.390;10.856;2022-12-04T15:01:41;6.20;;;3.90;;
50205;SDS011;36098;48.390;10.856;2022-12-04T15:04:21;7.28;;;4.25;;
50205;SDS011;36098;48.390;10.856;2022-12-04T15:06:49;6.57;;;4.18;;
50205;SDS011;36098;48.390;10.856;2022-12-04T15:09:16;7.05;;;4.28;;
50205;SDS011;36098;48.390;10.856;2022-12-04T15:12:11;5.93;;;4.00;;
50205;SDS011;36098;48.390;10.856;2022-12-04T15:15:03;6.80;;;4.10;;
50205;SDS011;36098;48.390;10.856;2022-12-04T15:17:33;6.63;;;4.03;;
50205;SDS011;36098;48.390;10.856;2022-12-04T15:20:15;9.23;;;4.13;;
50205;SDS011;36098;48.390;10.856;2022-12-04T15:22:42;5.47;;;3.78;;
50205;SDS011;36098;48.390;10.856;2022-12-04T15:25:21;7.82;;;4.05;;
50205;SDS011;36098;48.390;10.856;2022-12-04T15:27:50;4.55;;;3.67;;
50205;SDS011;36098;48.390;10.856;2022-12-04T15:30:20;7.75;;;3.80;;
50205;SDS011;36098;48.390;10.856;2022-12-04T15:32:47;8.15;;;4.25;;
50205;SDS011;36098;48.390;10.856;2022-12-04T15:35:18;5.45;;;3.88;;
50205;SDS011;36098;48.390;10.856;2022-12-04T15:37:47;6.97;;;4.07;;
50205;SDS011;36098;48.390;10.856;2022-12-04T15:40:21;6.63;;;4.18;;
50205;SDS011;36098;48.390;10.856;2022-12-04T15:42:48;6.32;;;4.30;;
50205;SDS011;36098;48.390;10.856;2022-12-04T15:55:26;9.98;;;4.72;;
50205;SDS011;36098;48.390;10.856;2022-12-04T15:57:56;6.03;;;3.90;;
50205;SDS011;36098;48.390;10.856;2022-12-04T16:00:28;7.45;;;3.95;;
50205;SDS011;36098;48.390;10.856;2022-12-04T16:02:55;5.75;;;3.95;;
50205;SDS011;36098;48.390;10.856;2022-12-04T16:07:56;7.53;;;4.18;;
50205;SDS011;36098;48.390;10.856;2022-12-04T16:10:25;5.35;;;4.13;;
50205;SDS011;36098;48.390;10.856;2022-12-04T16:13:02;5.90;;;4.38;;
50205;SDS011;36098;48.390;10.856;2022-12-04T16:18:05;5.80;;;4.15;;
50205;SDS011;36098;48.390;10.856;2022-12-04T16:20:35;5.88;;;3.92;;
50205;SDS011;36098;48.390;10.856;2022-12-04T16:23:02;6.75;;;4.10;;
50205;SDS011;36098;48.390;10.856;2022-12-04T16:25:29;6.35;;;3.55;;
50205;SDS011;36098;48.390;10.856;2022-12-04T16:27:56;7.82;;;4.25;;
50205;SDS011;36098;48.390;10.856;2022-12-04T16:30:22;12.55;;;4.72;;
50205;SDS011;36098;48.390;10.856;2022-12-04T16:32:47;5.47;;;3.88;;
50205;SDS011;36098;48.390;10.856;2022-12-04T16:35:14;5.60;;;4.00;;
50205;SDS011;36098;48.390;10.856;2022-12-04T16:37:41;5.03;;;3.75;;
50205;SDS011;36098;48.390;10.856;2022-12-04T16:40:07;6.35;;;4.05;;
50205;SDS011;36098;48.390;10.856;2022-12-04T16:42:35;5.47;;;4.03;;
50205;SDS011;36098;48.390;10.856;2022-12-04T16:45:00;6.88;;;3.42;;
50205;SDS011;36098;48.390;10.856;2022-12-04T16:47:25;7.32;;;4.20;;
50205;SDS011;36098;48.390;10.856;2022-12-04T16:49:51;7.78;;;3.97;;
50205;SDS011;36098;48.390;10.856;2022-12-04T16:52:17;5.85;;;4.05;;
50205;SDS011;36098;48.390;10.856;2022-12-04T16:54:43;9.40;;;4.40;;
50205;SDS011;36098;48.390;10.856;2022-12-04T16:57:09;4.95;;;3.95;;
50205;SDS011;36098;48.390;10.856;2022-12-04T16:59:34;7.55;;;3.70;;
50205;SDS011;36098;48.390;10.856;2022-12-04T17:02:00;6.63;;;4.32;;
50205;SDS011;36098;48.390;10.856;2022-12-04T17:04:25;5.68;;;3.88;;